Mechanicsburg, IL (62545)

11:22 AM CDT on September 30, 2016 (GMT -0500)
South Weather Station | | Change Station

Elev 587 ft 39.80 °N, 89.40 °W | Updated 3 seconds ago

Light Rain
Light Rain Mist
62.5 °F
Feels Like 62.5 °F
N
4.0
Wind Variable Wind from NNE
Gusts 13.0 mph

Today
High -- | Low -- °F
--% Chance of Precip.
Yesterday
High -- | Low -- °F
Precip. -- in
Pressure 30.12 in
Visibility 4.0 miles
Clouds Overcast 900 ft
Dew Point 58 °F
Humidity 86%
Rainfall 0.02 in
Snow Depth Not available.
6:53 AM 6:40 PM
Waning Crescent, 0% visible
SPECI KSPI 301616Z 35011KT 4SM -RA BR OVC009 17/16 A3012 RMK AO2 RAB02 P0000 T01720156
Pressure 30.12 in
Visibility 4.0 miles
Clouds Overcast 900 ft
Dew Point 58 °F
Humidity 86%
Rainfall 0.02 in
Snow Depth Not available.
6:53 AM 6:40 PM
Waning Crescent, 0% visible
SPECI KSPI 301616Z 35011KT 4SM -RA BR OVC009 17/16 A3012 RMK AO2 RAB02 P0000 T01720156

10-Day Weather Forecast

Almanac

Astronomy

Sep. 30, 2016 Rise Set
Actual Time
Civil Twilight
Nautical Twilight
Astronomical Twilight
Moon
Length of Visible Light
Length of Day
Tomorrow will be .
, % of the Moon is Illuminated

Today's Extremes

State Highs State Lows

Community

WunderPhotos

Upload Photos

1,942,745 photos uploaded!

WunderBlog® & News

Nearby

Air Quality

  Air Quality AQ Index Pollutant
Not available.

Snow Depth

Station Depth Elevation

Earthquake Activity

City Distance Mag. Time & Date
Minimum magnitude displayed is 2.5.

Coastal Water Temperatures

Place Temperature

Stations

Nearby Weather Stations

Station Location Temp. Windchill Dew Point Humidity Wind Precip. Elev Updated Type
                   

Watches & Warnings

There are currently no watches in effect.